createdAt,value
2018-12-27T00:00:16.780Z,3.60
2018-12-27T00:02:55.027Z,3.70
2018-12-27T00:05:27.455Z,3.70
2018-12-27T00:08:03.079Z,3.70
2018-12-27T00:10:40.031Z,3.80
2018-12-27T00:13:27.906Z,3.80
2018-12-27T00:15:57.412Z,3.80
2018-12-27T00:18:29.960Z,3.80
2018-12-27T00:20:59.362Z,3.80
2018-12-27T00:23:28.875Z,3.90
2018-12-27T00:25:58.264Z,3.90
2018-12-27T00:28:41.814Z,3.90
2018-12-27T00:31:17.421Z,3.90
2018-12-27T00:33:48.137Z,3.90
2018-12-27T00:36:17.795Z,3.90
2018-12-27T00:38:48.455Z,3.80
2018-12-27T00:41:18.047Z,3.80
2018-12-27T00:43:48.028Z,3.80
2018-12-27T00:46:18.584Z,3.70
2018-12-27T00:48:49.292Z,3.70
2018-12-27T00:51:18.860Z,3.70
2018-12-27T00:53:50.543Z,3.70
2018-12-27T00:56:22.220Z,3.70
2018-12-27T00:58:52.886Z,3.70
2018-12-27T01:01:22.452Z,3.60
2018-12-27T01:03:53.156Z,3.70
2018-12-27T01:06:31.847Z,3.60
2018-12-27T01:09:07.313Z,3.60
2018-12-27T01:11:36.925Z,3.60
2018-12-27T01:14:12.485Z,3.60
2018-12-27T01:16:43.076Z,3.70
2018-12-27T01:19:12.638Z,3.80
2018-12-27T01:21:42.251Z,3.90
2018-12-27T01:24:11.892Z,3.90
2018-12-27T01:26:49.602Z,4.00
2018-12-27T01:29:19.282Z,4.00
2018-12-27T01:31:50.705Z,4.00
2018-12-27T01:34:21.239Z,4.00
2018-12-27T01:36:52.955Z,4.10
2018-12-27T01:39:22.590Z,4.00
2018-12-27T01:41:52.284Z,4.00
2018-12-27T01:44:23.904Z,4.00
2018-12-27T01:46:53.571Z,3.90
2018-12-27T01:49:25.212Z,3.90
2018-12-27T01:52:02.229Z,3.90
2018-12-27T01:54:36.127Z,3.90
2018-12-27T01:57:05.813Z,3.90
2018-12-27T01:59:35.454Z,3.90
2018-12-27T02:02:05.078Z,3.80
2018-12-27T02:04:36.640Z,3.90
2018-12-27T02:07:07.302Z,3.90
2018-12-27T02:09:36.904Z,3.90
2018-12-27T02:12:06.536Z,3.80
2018-12-27T02:14:36.116Z,3.80
2018-12-27T02:17:17.055Z,3.80
2018-12-27T02:19:46.626Z,3.70
2018-12-27T02:22:17.208Z,3.80
2018-12-27T02:24:50.920Z,3.80
2018-12-27T02:27:22.631Z,3.80
2018-12-27T02:30:01.230Z,3.80
2018-12-27T02:32:36.635Z,3.80
2018-12-27T02:35:06.288Z,3.70
2018-12-27T02:37:38.989Z,3.70
2018-12-27T02:40:15.837Z,3.70
2018-12-27T02:42:45.477Z,3.70
2018-12-27T02:45:16.161Z,3.70
2018-12-27T02:47:45.806Z,3.70
2018-12-27T02:50:15.374Z,3.70
2018-12-27T02:52:45.045Z,3.80
2018-12-27T02:55:22.497Z,3.80
2018-12-27T02:57:54.092Z,3.80
2018-12-27T03:00:26.880Z,3.70
2018-12-27T03:02:57.324Z,3.70
2018-12-27T03:05:30.720Z,3.70
2018-12-27T03:08:01.396Z,3.70
2018-12-27T03:10:30.949Z,3.70
2018-12-27T03:13:02.567Z,3.70
2018-12-27T03:15:32.143Z,3.70
2018-12-27T03:18:01.858Z,3.70
2018-12-27T03:20:31.637Z,3.80
2018-12-27T03:23:03.336Z,3.80
2018-12-27T03:25:32.976Z,3.80
2018-12-27T03:28:06.751Z,3.80
2018-12-27T03:30:36.329Z,3.80
2018-12-27T03:33:15.100Z,3.80
2018-12-27T03:35:44.678Z,3.70
2018-12-27T03:38:16.337Z,3.70
2018-12-27T03:40:45.856Z,3.60
2018-12-27T03:43:15.542Z,3.50
2018-12-27T03:45:51.043Z,3.50
2018-12-27T03:48:31.836Z,3.40
2018-12-27T03:51:01.446Z,3.30
2018-12-27T03:53:38.259Z,3.30
2018-12-27T03:56:09.913Z,3.20
2018-12-27T03:58:45.314Z,3.10
2018-12-27T04:01:14.891Z,3.00
2018-12-27T04:03:46.504Z,3.00
2018-12-27T04:06:18.145Z,2.90
2018-12-27T04:08:48.766Z,2.80
2018-12-27T04:11:18.377Z,2.70
2018-12-27T04:13:48.134Z,2.60
2018-12-27T04:16:17.599Z,2.50
2018-12-27T04:18:53.082Z,2.50
2018-12-27T04:21:24.528Z,2.50
2018-12-27T04:23:54.128Z,2.60
2018-12-27T04:26:41.835Z,2.60
2018-12-27T04:29:17.654Z,2.70
2018-12-27T04:31:49.607Z,2.80
2018-12-27T04:34:20.286Z,2.90
2018-12-27T04:36:51.593Z,2.90
2018-12-27T04:39:22.114Z,2.90
2018-12-27T04:41:54.053Z,2.90
2018-12-27T04:44:30.604Z,2.80
2018-12-27T04:47:02.128Z,2.70
2018-12-27T04:49:32.625Z,2.70
2018-12-27T04:52:02.048Z,2.60
2018-12-27T04:54:32.494Z,2.50
2018-12-27T04:57:04.089Z,2.30
2018-12-27T04:59:52.522Z,2.30
2018-12-27T05:02:22.950Z,2.30
2018-12-27T05:05:00.445Z,2.30
2018-12-27T05:07:33.352Z,2.30
2018-12-27T05:10:02.723Z,2.30
2018-12-27T05:12:32.209Z,2.30
2018-12-27T05:15:01.731Z,2.20
2018-12-27T05:17:32.421Z,2.20
2018-12-27T05:20:09.050Z,2.10
2018-12-27T05:22:40.527Z,2.00
2018-12-27T05:25:11.988Z,2.00
2018-12-27T05:27:41.501Z,1.90
2018-12-27T05:30:15.143Z,1.90
2018-12-27T05:32:45.715Z,1.90
2018-12-27T05:35:21.038Z,1.90
2018-12-27T05:37:57.559Z,2.00
2018-12-27T05:40:27.039Z,1.90
2018-12-27T05:43:02.733Z,1.90
2018-12-27T05:45:34.345Z,2.00
2018-12-27T05:48:04.800Z,1.90
2018-12-27T05:50:34.302Z,1.80
2018-12-27T05:53:05.888Z,1.80
2018-12-27T05:55:35.342Z,1.70
2018-12-27T05:58:04.687Z,1.70
2018-12-27T06:00:34.235Z,1.70
2018-12-27T06:03:05.672Z,1.70
2018-12-27T06:05:36.117Z,1.70
2018-12-27T06:08:06.569Z,1.80
2018-12-27T06:10:38.026Z,1.80
2018-12-27T06:13:07.525Z,1.80
2018-12-27T06:15:38.020Z,1.80
2018-12-27T06:18:19.264Z,1.80
2018-12-27T06:21:00.063Z,1.80
2018-12-27T06:23:29.590Z,1.70
2018-12-27T06:26:02.193Z,1.70
2018-12-27T06:28:32.661Z,1.70
2018-12-27T06:31:09.071Z,1.70
2018-12-27T06:33:38.522Z,1.70
2018-12-27T06:36:08.007Z,1.80
2018-12-27T06:38:38.533Z,1.70
2018-12-27T06:41:07.933Z,1.80
2018-12-27T06:43:37.366Z,1.80
2018-12-27T06:46:12.838Z,1.70
2018-12-27T06:48:42.245Z,1.70
2018-12-27T06:51:20.657Z,1.70
2018-12-27T06:53:51.200Z,1.60
2018-12-27T06:56:20.623Z,1.50
2018-12-27T06:58:59.081Z,1.40
2018-12-27T07:01:28.465Z,1.20
2018-12-27T07:03:57.888Z,1.10
2018-12-27T07:06:28.351Z,1.00
2018-12-27T07:08:57.872Z,0.90
2018-12-27T07:11:29.412Z,0.80
2018-12-27T07:14:04.751Z,0.80
2018-12-27T07:16:34.312Z,0.80
2018-12-27T07:19:04.739Z,0.80
2018-12-27T07:21:34.357Z,0.70
2018-12-27T07:24:04.838Z,0.80
2018-12-27T07:26:36.259Z,0.80
2018-12-27T07:29:14.982Z,0.80
2018-12-27T07:31:44.415Z,0.80
2018-12-27T07:34:21.301Z,0.70
2018-12-27T07:36:52.824Z,0.80
2018-12-27T07:39:22.319Z,0.80
2018-12-27T07:41:54.840Z,0.80
2018-12-27T07:44:24.298Z,0.80
2018-12-27T07:46:53.816Z,0.80
2018-12-27T07:49:23.376Z,0.80
2018-12-27T07:51:58.995Z,0.70
2018-12-27T07:54:29.443Z,0.80
2018-12-27T07:56:58.924Z,0.90
2018-12-27T07:59:28.381Z,0.90
2018-12-27T08:01:57.762Z,1.00
2018-12-27T08:04:27.210Z,1.10
2018-12-27T08:06:56.711Z,1.10
2018-12-27T08:09:26.231Z,1.10
2018-12-27T08:12:04.779Z,1.10
2018-12-27T08:14:36.246Z,1.20
2018-12-27T08:17:13.651Z,1.20
2018-12-27T08:19:45.131Z,1.30
2018-12-27T08:22:15.626Z,1.30
2018-12-27T08:24:49.201Z,1.30
2018-12-27T08:27:20.697Z,1.40
2018-12-27T08:29:51.105Z,1.40
2018-12-27T08:32:20.627Z,1.50
2018-12-27T08:34:50.020Z,1.50
2018-12-27T08:37:19.525Z,1.60
2018-12-27T08:39:48.871Z,1.50
2018-12-27T08:42:18.351Z,1.40
2018-12-27T08:44:47.852Z,1.30
2018-12-27T08:47:25.756Z,1.30
2018-12-27T08:49:58.439Z,1.30
2018-12-27T08:52:34.950Z,1.40
2018-12-27T08:55:05.804Z,1.50
2018-12-27T08:57:35.208Z,1.70
2018-12-27T09:00:06.043Z,1.80
2018-12-27T09:02:35.440Z,1.90
2018-12-27T09:05:06.638Z,1.90
2018-12-27T09:07:42.042Z,1.90
2018-12-27T09:10:11.468Z,2.10
2018-12-27T09:12:40.910Z,2.40
2018-12-27T09:15:10.451Z,2.50
2018-12-27T09:17:39.924Z,2.80
2018-12-27T09:20:21.554Z,2.90
2018-12-27T09:22:59.959Z,3.00
2018-12-27T09:25:38.408Z,3.00
2018-12-27T09:28:11.067Z,3.00
2018-12-27T09:30:46.183Z,3.20
2018-12-27T09:33:16.645Z,3.20
2018-12-27T09:35:46.119Z,3.30
2018-12-27T09:38:21.834Z,3.40
2018-12-27T09:40:51.288Z,3.40
2018-12-27T09:43:27.570Z,3.40
2018-12-27T09:45:57.975Z,3.40
2018-12-27T09:48:30.682Z,3.50
2018-12-27T09:51:01.154Z,3.60
2018-12-27T09:53:30.651Z,3.80
2018-12-27T09:56:01.074Z,3.90
2018-12-27T09:58:31.571Z,4.00
2018-12-27T10:01:03.052Z,4.10
2018-12-27T10:03:38.553Z,4.40
2018-12-27T10:06:08.066Z,4.60
2018-12-27T10:08:37.441Z,4.70
2018-12-27T10:11:07.833Z,4.80
2018-12-27T10:13:37.370Z,4.90
2018-12-27T10:16:12.889Z,5.10
2018-12-27T10:18:46.403Z,5.20
2018-12-27T10:21:22.194Z,5.20
2018-12-27T10:23:52.566Z,5.40
2018-12-27T10:26:22.028Z,5.50
2018-12-27T10:28:53.498Z,5.60
2018-12-27T10:31:27.273Z,5.70
2018-12-27T10:34:01.904Z,5.70
2018-12-27T10:36:37.133Z,5.60
2018-12-27T10:39:15.427Z,5.60
2018-12-27T10:41:44.975Z,5.70
2018-12-27T10:44:16.433Z,5.80
2018-12-27T10:46:47.882Z,5.90
2018-12-27T10:49:17.388Z,6.00
2018-12-27T10:51:46.975Z,6.10
2018-12-27T10:54:22.359Z,6.10
2018-12-27T10:56:51.873Z,6.20
2018-12-27T10:59:22.475Z,6.30
2018-12-27T11:01:55.038Z,6.50
2018-12-27T11:04:24.509Z,6.50
2018-12-27T11:06:55.370Z,6.60
2018-12-27T11:09:36.927Z,6.70
2018-12-27T11:12:06.361Z,6.80
2018-12-27T11:14:41.196Z,6.80
2018-12-27T11:17:10.692Z,6.90
2018-12-27T11:19:40.264Z,7.10
2018-12-27T11:22:09.701Z,7.20
2018-12-27T11:24:39.206Z,7.40
2018-12-27T11:27:09.543Z,7.50
2018-12-27T11:29:38.989Z,7.70
2018-12-27T11:32:08.546Z,7.80
2018-12-27T11:34:39.192Z,7.80
2018-12-27T11:37:19.460Z,8.00
2018-12-27T11:39:48.946Z,8.10
2018-12-27T11:42:18.416Z,8.20
2018-12-27T11:44:47.836Z,8.40
2018-12-27T11:47:17.208Z,8.60
2018-12-27T11:49:48.629Z,8.70
2018-12-27T11:52:19.104Z,8.80
2018-12-27T11:54:48.569Z,8.90
2018-12-27T11:57:17.988Z,8.90
2018-12-27T11:59:47.442Z,8.90
2018-12-27T12:02:16.912Z,8.80
2018-12-27T12:04:46.577Z,8.70
2018-12-27T12:07:16.999Z,8.80
2018-12-27T12:09:47.604Z,8.70
2018-12-27T12:12:18.033Z,8.70
2018-12-27T12:14:47.563Z,8.60
2018-12-27T12:17:17.003Z,8.60
2018-12-27T12:19:46.510Z,8.60
2018-12-27T12:22:15.968Z,8.60
2018-12-27T12:24:46.500Z,8.70
2018-12-27T12:27:18.143Z,8.70
2018-12-27T12:29:47.632Z,8.80
2018-12-27T12:32:17.132Z,8.80
2018-12-27T12:34:53.628Z,8.70
2018-12-27T12:37:25.279Z,8.80
2018-12-27T12:39:54.775Z,8.90
2018-12-27T12:42:32.719Z,8.90
2018-12-27T12:45:01.250Z,8.90
2018-12-27T12:47:33.848Z,9.00
2018-12-27T12:50:03.272Z,9.00
2018-12-27T12:52:33.802Z,9.10
2018-12-27T12:55:04.630Z,9.10
2018-12-27T12:57:35.156Z,9.10
2018-12-27T13:00:05.277Z,9.10
2018-12-27T13:02:34.875Z,9.20
2018-12-27T13:05:04.791Z,9.40
2018-12-27T13:07:36.254Z,9.40
2018-12-27T13:10:05.911Z,9.30
2018-12-27T13:12:35.387Z,9.20
2018-12-27T13:15:05.057Z,9.10
2018-12-27T13:17:35.518Z,9.10
2018-12-27T13:20:08.050Z,9.10
2018-12-27T13:22:38.451Z,8.80
2018-12-27T13:25:15.930Z,8.70
2018-12-27T13:27:54.516Z,8.60
2018-12-27T13:30:24.037Z,8.50
2018-12-27T13:33:00.504Z,8.40
2018-12-27T13:35:29.913Z,8.40
2018-12-27T13:38:06.559Z,8.30
2018-12-27T13:40:36.150Z,8.30
2018-12-27T13:43:08.453Z,8.20
2018-12-27T13:45:44.820Z,8.20
2018-12-27T13:48:14.309Z,8.20
2018-12-27T13:50:43.886Z,8.10
2018-12-27T13:53:13.342Z,8.10
2018-12-27T13:55:45.851Z,8.10
2018-12-27T13:58:15.285Z,8.20
2018-12-27T14:00:44.823Z,8.20
2018-12-27T14:03:14.274Z,8.20
2018-12-27T14:05:43.701Z,8.20
2018-12-27T14:08:13.192Z,8.20
2018-12-27T14:10:42.626Z,8.20
2018-12-27T14:13:12.597Z,8.10
2018-12-27T14:15:42.712Z,8.10
2018-12-27T14:18:12.643Z,8.10
2018-12-27T14:20:49.314Z,8.10
2018-12-27T14:23:19.984Z,8.00
2018-12-27T14:25:49.525Z,7.90
2018-12-27T14:28:19.084Z,7.90
2018-12-27T14:30:53.132Z,7.80
2018-12-27T14:33:24.034Z,7.80
2018-12-27T14:35:54.998Z,7.80
2018-12-27T14:38:25.874Z,7.80
2018-12-27T14:40:57.465Z,7.80
2018-12-27T14:43:38.945Z,7.80
2018-12-27T14:46:10.560Z,7.80
2018-12-27T14:48:40.492Z,7.70
2018-12-27T14:51:11.327Z,7.70
2018-12-27T14:53:40.966Z,7.70
2018-12-27T14:56:11.437Z,7.60
2018-12-27T14:58:46.756Z,7.60
2018-12-27T15:01:16.211Z,7.60
2018-12-27T15:03:45.845Z,7.50
2018-12-27T15:06:17.460Z,7.50
2018-12-27T15:08:57.376Z,7.50
2018-12-27T15:11:27.447Z,7.30
2018-12-27T15:14:02.992Z,7.10
2018-12-27T15:16:33.034Z,6.90
2018-12-27T15:19:08.375Z,6.70
2018-12-27T15:21:39.914Z,6.70
2018-12-27T15:24:11.374Z,6.60
2018-12-27T15:26:44.090Z,6.60
2018-12-27T15:29:13.719Z,6.50
2018-12-27T15:31:43.263Z,6.60
2018-12-27T15:34:12.891Z,6.70
2018-12-27T15:36:44.535Z,6.70
2018-12-27T15:39:14.052Z,6.70
2018-12-27T15:41:44.578Z,6.60
2018-12-27T15:44:14.039Z,6.50
2018-12-27T15:46:47.637Z,6.40
2018-12-27T15:49:22.340Z,6.40
2018-12-27T15:51:51.838Z,6.50
2018-12-27T15:54:21.283Z,6.40
2018-12-27T15:56:52.730Z,6.30
2018-12-27T15:59:22.316Z,6.30
2018-12-27T16:01:51.815Z,6.30
2018-12-27T16:04:21.326Z,6.10
2018-12-27T16:06:52.498Z,5.90
2018-12-27T16:09:21.980Z,5.70
2018-12-27T16:11:58.197Z,5.60
2018-12-27T16:14:27.667Z,5.60
2018-12-27T16:16:59.080Z,5.50
2018-12-27T16:19:28.505Z,5.50
2018-12-27T16:21:57.945Z,5.50
2018-12-27T16:24:27.391Z,5.60
2018-12-27T16:27:03.664Z,5.70
2018-12-27T16:29:35.075Z,5.80
2018-12-27T16:32:05.907Z,5.80
2018-12-27T16:34:37.526Z,5.80
2018-12-27T16:37:14.124Z,5.80
2018-12-27T16:39:45.531Z,5.80
2018-12-27T16:42:21.619Z,5.70
2018-12-27T16:44:46.203Z,5.70
2018-12-27T16:47:15.660Z,5.60
2018-12-27T16:49:47.536Z,5.50
2018-12-27T16:52:20.164Z,5.40
2018-12-27T16:55:01.698Z,5.40
2018-12-27T16:57:31.171Z,5.40
2018-12-27T17:00:00.669Z,5.40
2018-12-27T17:02:30.200Z,5.50
2018-12-27T17:04:59.694Z,5.40
2018-12-27T17:07:29.191Z,5.40
2018-12-27T17:10:00.703Z,5.30
2018-12-27T17:12:31.245Z,5.20
2018-12-27T17:15:02.665Z,5.20
2018-12-27T17:17:34.194Z,5.10
2018-12-27T17:20:11.419Z,5.10
2018-12-27T17:22:40.887Z,5.10
2018-12-27T17:25:13.511Z,5.10
2018-12-27T17:27:42.982Z,5.20
2018-12-27T17:30:12.513Z,5.30
2018-12-27T17:32:42.068Z,5.30
2018-12-27T17:35:35.564Z,5.40
2018-12-27T17:38:04.983Z,5.30
2018-12-27T17:40:48.697Z,5.30
2018-12-27T17:43:18.205Z,5.30
2018-12-27T17:45:49.606Z,5.20
2018-12-27T17:48:19.031Z,5.10
2018-12-27T17:50:48.574Z,5.00
2018-12-27T17:53:18.029Z,4.90
2018-12-27T17:56:06.071Z,4.80
2018-12-27T17:58:35.587Z,4.70
2018-12-27T18:01:05.110Z,4.50
2018-12-27T18:03:34.580Z,4.30
2018-12-27T18:06:05.030Z,4.30
2018-12-27T18:08:34.474Z,4.30
2018-12-27T18:11:05.004Z,4.10
2018-12-27T18:13:36.412Z,4.10
2018-12-27T18:16:06.954Z,4.00
2018-12-27T18:18:45.686Z,3.90
2018-12-27T18:21:15.181Z,3.90
2018-12-27T18:23:45.681Z,3.80
2018-12-27T18:26:15.564Z,3.70
2018-12-27T18:28:45.004Z,3.70
2018-12-27T18:31:16.544Z,3.70
2018-12-27T18:33:48.138Z,3.70
2018-12-27T18:36:20.745Z,3.70
2018-12-27T18:39:01.378Z,3.70
2018-12-27T18:41:30.809Z,3.70
2018-12-27T18:44:01.700Z,3.70
2018-12-27T18:46:31.145Z,3.70
2018-12-27T18:49:08.826Z,3.70
2018-12-27T18:51:38.365Z,3.60
2018-12-27T18:54:07.735Z,3.60
2018-12-27T18:56:38.244Z,3.50
2018-12-27T18:59:10.943Z,3.50
2018-12-27T19:01:41.419Z,3.50
2018-12-27T19:04:11.838Z,3.50
2018-12-27T19:06:47.281Z,3.40
2018-12-27T19:09:16.693Z,3.40
2018-12-27T19:12:24.901Z,3.40
2018-12-27T19:14:58.540Z,3.30
2018-12-27T19:17:40.048Z,3.30
2018-12-27T19:20:11.581Z,3.30
2018-12-27T19:22:55.082Z,3.30
2018-12-27T19:25:24.625Z,3.20
2018-12-27T19:27:54.109Z,3.20
2018-12-27T19:30:23.562Z,3.10
2018-12-27T19:32:55.143Z,3.10
2018-12-27T19:35:26.611Z,3.10
2018-12-27T19:37:56.053Z,3.10
2018-12-27T19:40:25.514Z,3.00
2018-12-27T19:42:54.978Z,2.90
2018-12-27T19:45:24.333Z,2.80
2018-12-27T19:47:53.845Z,2.70
2018-12-27T19:50:27.375Z,2.70
2018-12-27T19:52:56.879Z,2.80
2018-12-27T19:55:29.679Z,2.80
2018-12-27T19:57:59.002Z,2.80
2018-12-27T20:00:30.457Z,2.80
2018-12-27T20:02:59.947Z,2.70
2018-12-27T20:05:29.399Z,2.60
2018-12-27T20:08:00.859Z,2.50
2018-12-27T20:10:30.246Z,2.40
2018-12-27T20:13:00.684Z,2.40
2018-12-27T20:15:40.333Z,2.40
2018-12-27T20:18:09.782Z,2.40
2018-12-27T20:20:41.271Z,2.40
2018-12-27T20:23:13.820Z,2.40
2018-12-27T20:25:43.302Z,2.40
2018-12-27T20:28:13.835Z,2.30
2018-12-27T20:30:48.090Z,2.20
2018-12-27T20:33:17.533Z,2.20
2018-12-27T20:35:50.033Z,2.20
2018-12-27T20:38:19.545Z,2.20
2018-12-27T20:40:49.146Z,2.20
2018-12-27T20:43:20.668Z,2.30
2018-12-27T20:45:51.199Z,2.30
2018-12-27T20:48:22.657Z,2.30
2018-12-27T20:50:52.229Z,2.40
2018-12-27T20:53:21.695Z,2.40
2018-12-27T20:55:55.510Z,2.50
2018-12-27T20:58:27.103Z,2.40
2018-12-27T21:00:57.652Z,2.40
2018-12-27T21:03:35.135Z,2.40
2018-12-27T21:06:05.727Z,2.40
2018-12-27T21:08:44.956Z,2.30
2018-12-27T21:11:14.368Z,2.30
2018-12-27T21:13:56.910Z,2.30
2018-12-27T21:16:26.385Z,2.30
2018-12-27T21:18:55.826Z,2.30
2018-12-27T21:21:26.356Z,2.40
2018-12-27T21:23:55.767Z,2.50
2018-12-27T21:26:25.257Z,2.50
2018-12-27T21:28:54.948Z,2.50
2018-12-27T21:31:25.100Z,2.60
2018-12-27T21:34:02.983Z,2.60
2018-12-27T21:36:33.459Z,2.60
2018-12-27T21:39:04.008Z,2.50
2018-12-27T21:41:33.528Z,2.50
2018-12-27T21:44:04.095Z,2.50
2018-12-27T21:46:33.743Z,2.50
2018-12-27T21:49:03.523Z,2.60
2018-12-27T21:51:35.067Z,2.70
2018-12-27T21:54:05.573Z,2.60
2018-12-27T21:56:36.087Z,2.60
2018-12-27T21:59:12.496Z,2.60
2018-12-27T22:01:43.004Z,2.70
2018-12-27T22:04:19.235Z,2.70
2018-12-27T22:06:52.003Z,2.70
2018-12-27T22:09:32.035Z,2.70
2018-12-27T22:12:01.425Z,2.70
2018-12-27T22:14:30.905Z,2.70
2018-12-27T22:17:19.381Z,2.70
2018-12-27T22:19:57.740Z,2.70
2018-12-27T22:22:33.109Z,2.60
2018-12-27T22:25:11.728Z,2.50
2018-12-27T22:27:41.212Z,2.50
2018-12-27T22:30:11.669Z,2.50
2018-12-27T22:32:41.088Z,2.50
2018-12-27T22:35:12.545Z,2.40
2018-12-27T22:37:46.316Z,2.30
2018-12-27T22:40:17.895Z,2.30
2018-12-27T22:42:47.306Z,2.30
2018-12-27T22:45:24.763Z,2.40
2018-12-27T22:47:56.341Z,2.30
2018-12-27T22:50:40.892Z,2.30
2018-12-27T22:53:10.273Z,2.40
2018-12-27T22:55:54.632Z,2.40
2018-12-27T22:58:25.089Z,2.40
2018-12-27T23:01:00.503Z,2.40
2018-12-27T23:03:29.937Z,2.30
2018-12-27T23:06:05.674Z,2.30
2018-12-27T23:08:43.053Z,2.30
2018-12-27T23:11:08.377Z,2.40
2018-12-27T23:13:39.836Z,2.40
2018-12-27T23:16:10.608Z,2.30
2018-12-27T23:18:40.011Z,2.20
2018-12-27T23:21:09.530Z,2.10
2018-12-27T23:23:39.662Z,2.00
2018-12-27T23:26:09.246Z,2.00
2018-12-27T23:28:53.846Z,1.90
2018-12-27T23:31:35.222Z,1.90
2018-12-27T23:34:12.727Z,1.90
2018-12-27T23:36:43.179Z,2.00
2018-12-27T23:39:15.805Z,2.00
2018-12-27T23:41:47.215Z,2.00
2018-12-27T23:44:35.699Z,2.00
2018-12-27T23:47:05.095Z,2.00
2018-12-27T23:49:37.711Z,1.90
2018-12-27T23:52:08.143Z,1.90
2018-12-27T23:54:37.644Z,1.80
2018-12-27T23:57:13.144Z,1.70
2018-12-27T23:59:51.624Z,1.70
